createdAt,value
2023-03-02T15:17:54.265Z,99983.04
2023-03-02T15:20:23.786Z,99997.70
2023-03-02T15:22:54.119Z,99995.31
2023-03-02T15:25:24.075Z,99993.61
2023-03-02T15:27:53.095Z,99988.20
2023-03-02T15:30:21.266Z,99987.77
2023-03-02T15:32:49.145Z,99984.50
2023-03-02T15:35:17.806Z,99982.81
2023-03-02T15:37:49.521Z,99981.16
2023-03-02T15:40:18.049Z,99984.45
2023-03-02T15:42:46.230Z,99984.38
2023-03-02T15:45:14.569Z,99981.43
2023-03-02T15:47:42.466Z,99980.09
2023-03-02T15:50:11.357Z,99981.04
2023-03-02T15:52:39.591Z,99981.96
2023-03-02T15:55:07.961Z,99979.73
2023-03-02T15:57:39.299Z,99981.38
2023-03-02T16:00:09.126Z,99981.61
2023-03-02T16:02:37.034Z,99978.67
2023-03-02T16:05:09.456Z,99981.75
2023-03-02T16:07:39.688Z,99984.70
2023-03-02T16:10:08.686Z,99988.84
2023-03-02T16:12:36.925Z,99985.17
2023-03-02T16:15:05.472Z,99982.59
2023-03-02T16:17:33.815Z,99982.29
2023-03-02T16:20:01.777Z,99982.73
2023-03-02T16:22:30.113Z,99980.83
2023-03-02T16:24:59.917Z,99987.48
2023-03-02T16:27:27.876Z,99985.06
2023-03-02T16:29:55.951Z,99984.48
2023-03-02T16:32:24.073Z,99989.70
2023-03-02T16:34:55.162Z,74570.72
2023-03-02T16:37:23.065Z,-1.00
2023-03-02T16:39:51.065Z,-1.00
2023-03-02T16:42:23.924Z,-1.00
2023-03-02T16:44:52.287Z,-1.00
2023-03-02T16:47:20.221Z,-1.00
2023-03-02T16:49:48.079Z,-1.00
2023-03-02T16:52:17.606Z,-1.00
2023-03-02T16:54:45.888Z,-1.00
2023-03-02T16:57:14.211Z,-1.00
2023-03-02T16:59:42.148Z,-1.00
2023-03-02T17:02:11.673Z,-1.00
2023-03-02T17:04:42.683Z,-1.00
2023-03-02T17:07:11.101Z,-1.00
2023-03-02T17:09:41.532Z,-1.00
2023-03-02T17:12:10.244Z,-1.00
2023-03-02T17:14:38.498Z,-1.00
2023-03-02T17:17:08.438Z,-1.00
2023-03-02T17:19:38.077Z,-1.00
2023-03-02T17:22:06.190Z,-1.00
2023-03-02T17:24:35.678Z,-1.00
2023-03-02T17:27:05.407Z,-1.00
2023-03-02T17:29:37.321Z,-1.00
2023-03-02T17:32:05.593Z,-1.00
2023-03-02T17:34:36.323Z,-1.00
2023-03-02T17:37:04.178Z,-1.00
2023-03-02T17:39:32.170Z,-1.00
2023-03-02T17:42:00.050Z,-1.00
2023-03-02T17:44:28.156Z,-1.00
2023-03-02T17:46:56.187Z,-1.00
2023-03-02T17:49:24.115Z,-1.00
2023-03-02T17:51:53.636Z,-1.00
2023-03-02T17:54:21.809Z,-1.00
2023-03-02T17:56:49.730Z,-1.00
2023-03-02T17:59:17.690Z,-1.00
2023-03-02T18:01:45.776Z,-1.00
2023-03-02T18:04:13.729Z,-1.00
2023-03-02T18:06:41.835Z,-1.00
2023-03-02T18:09:10.349Z,-1.00
2023-03-02T18:11:38.469Z,-1.00
2023-03-02T18:14:06.477Z,-1.00
2023-03-02T18:16:36.624Z,-1.00
2023-03-02T18:19:05.251Z,-1.00
2023-03-02T18:21:34.704Z,-1.00
2023-03-02T18:24:04.011Z,-1.00
2023-03-02T18:26:38.659Z,-1.00
2023-03-02T18:29:06.997Z,-1.00
2023-03-02T18:31:35.384Z,-1.00
2023-03-02T18:34:05.054Z,-1.00
2023-03-02T18:36:32.973Z,-1.00
2023-03-02T18:39:00.934Z,-1.00
2023-03-02T18:41:30.217Z,-1.00
2023-03-02T18:43:59.627Z,-1.00
2023-03-02T18:46:28.728Z,-1.00
2023-03-02T18:48:57.748Z,-1.00
2023-03-02T18:51:26.538Z,-1.00
2023-03-02T18:53:55.531Z,-1.00
2023-03-02T18:56:23.629Z,-1.00
2023-03-02T18:58:51.695Z,-1.00
2023-03-02T19:01:19.680Z,-1.00
2023-03-02T19:03:49.102Z,-1.00
2023-03-02T19:06:20.663Z,-1.00
2023-03-02T19:08:55.510Z,-1.00
2023-03-02T19:11:23.563Z,-1.00
2023-03-02T19:13:51.469Z,-1.00
2023-03-02T19:16:22.558Z,-1.00
2023-03-02T19:18:50.513Z,-1.00
2023-03-02T19:21:18.535Z,-1.00
2023-03-02T19:23:47.695Z,-1.00
2023-03-02T19:26:15.656Z,-1.00
2023-03-02T19:28:47.350Z,-1.00
2023-03-02T19:31:17.968Z,-1.00
2023-03-02T19:33:46.175Z,-1.00
2023-03-02T19:36:14.282Z,-1.00
2023-03-02T19:38:43.097Z,-1.00
2023-03-02T19:41:12.465Z,-1.00
2023-03-02T19:43:42.139Z,-1.00
2023-03-02T19:46:10.956Z,-1.00
2023-03-02T19:48:39.132Z,-1.00
2023-03-02T19:51:07.879Z,-1.00
2023-03-02T19:53:37.318Z,-1.00
2023-03-02T19:56:11.747Z,-1.00
2023-03-02T19:58:47.673Z,-1.00
2023-03-02T20:01:19.702Z,-1.00
2023-03-02T20:03:51.885Z,-1.00
2023-03-02T20:06:25.264Z,-1.00
2023-03-02T20:08:53.482Z,-1.00
2023-03-02T20:11:27.363Z,-1.00
2023-03-02T20:13:56.402Z,-1.00
2023-03-02T20:16:25.117Z,-1.00
2023-03-02T20:18:53.069Z,-1.00
2023-03-02T20:21:21.326Z,-1.00
2023-03-02T20:23:50.195Z,-1.00
2023-03-02T20:26:21.452Z,-1.00
2023-03-02T20:28:49.370Z,-1.00
2023-03-02T20:31:17.499Z,-1.00
2023-03-02T20:33:49.398Z,-1.00
2023-03-02T20:36:29.676Z,-1.00
2023-03-02T20:39:01.149Z,-1.00
2023-03-02T20:41:30.226Z,-1.00
2023-03-02T20:43:58.142Z,-1.00
2023-03-02T20:46:32.086Z,-1.00
2023-03-02T20:49:00.092Z,-1.00
2023-03-02T20:51:28.726Z,-1.00
2023-03-02T20:54:00.721Z,-1.00
2023-03-02T20:56:29.495Z,-1.00
2023-03-02T20:58:57.483Z,-1.00
2023-03-02T21:01:25.922Z,-1.00
2023-03-02T21:03:54.065Z,-1.00
2023-03-02T21:06:22.435Z,-1.00
2023-03-02T21:08:50.508Z,-1.00
2023-03-02T21:11:21.645Z,-1.00
2023-03-02T21:13:50.351Z,-1.00
2023-03-02T21:16:21.325Z,-1.00
2023-03-02T21:18:49.243Z,-1.00
2023-03-02T21:21:20.254Z,-1.00
2023-03-02T21:23:51.054Z,-1.00
2023-03-02T21:26:18.997Z,-1.00
2023-03-02T21:28:47.391Z,-1.00
2023-03-02T21:31:17.097Z,-1.00
2023-03-02T21:33:45.379Z,-1.00
2023-03-02T21:36:22.140Z,-1.00
2023-03-02T21:38:51.251Z,-1.00
2023-03-02T21:41:19.548Z,-1.00
2023-03-02T21:43:48.576Z,-1.00
2023-03-02T21:46:20.168Z,-1.00
2023-03-02T21:48:48.591Z,-1.00
2023-03-02T21:51:16.961Z,-1.00
2023-03-02T21:53:45.285Z,-1.00
2023-03-02T21:56:20.605Z,-1.00
2023-03-02T21:58:55.362Z,-1.00
2023-03-02T22:01:24.335Z,-1.00
2023-03-02T22:03:53.172Z,-1.00
2023-03-02T22:06:26.410Z,-1.00
2023-03-02T22:08:55.805Z,-1.00
2023-03-02T22:11:28.480Z,-1.00
2023-03-02T22:14:01.668Z,-1.00
2023-03-02T22:16:35.082Z,-1.00
2023-03-02T22:19:03.041Z,-1.00
2023-03-02T22:21:38.287Z,-1.00
2023-03-02T22:24:09.323Z,-1.00
2023-03-02T22:26:43.636Z,-1.00
2023-03-02T22:29:16.522Z,-1.00
2023-03-02T22:31:48.807Z,-1.00
2023-03-02T22:34:20.597Z,-1.00
2023-03-02T22:36:48.796Z,-1.00
2023-03-02T22:39:31.263Z,-1.00
2023-03-02T22:42:06.214Z,-1.00
2023-03-02T22:44:34.501Z,-1.00
2023-03-02T22:47:02.841Z,-1.00
2023-03-02T22:49:31.037Z,-1.00
2023-03-02T22:52:03.501Z,-1.00
2023-03-02T22:54:37.455Z,-1.00
2023-03-02T22:57:25.035Z,-1.00
2023-03-02T22:59:53.326Z,-1.00
2023-03-02T23:02:25.292Z,-1.00
2023-03-02T23:04:53.347Z,-1.00
2023-03-02T23:07:22.178Z,-1.00
2023-03-02T23:09:50.572Z,-1.00
2023-03-02T23:12:20.341Z,-1.00
2023-03-02T23:14:49.461Z,-1.00
2023-03-02T23:17:21.546Z,-1.00
2023-03-02T23:19:52.516Z,-1.00
2023-03-02T23:22:20.424Z,-1.00
2023-03-02T23:24:48.326Z,-1.00
2023-03-02T23:27:16.696Z,-1.00
2023-03-02T23:29:51.102Z,-1.00
2023-03-02T23:32:19.927Z,-1.00
2023-03-02T23:34:48.510Z,-1.00
2023-03-02T23:37:20.311Z,-1.00
2023-03-02T23:39:48.333Z,-1.00
2023-03-02T23:42:16.409Z,-1.00
2023-03-02T23:44:45.432Z,-1.00
2023-03-02T23:47:13.454Z,-1.00
2023-03-02T23:49:44.090Z,-1.00
2023-03-02T23:52:11.940Z,-1.00
2023-03-02T23:54:40.367Z,-1.00
2023-03-02T23:57:09.198Z,-1.00
2023-03-02T23:59:38.507Z,-1.00
